createdAt,value
2019-03-06T00:01:06.837Z,11.00
2019-03-06T00:03:35.867Z,11.10
2019-03-06T00:06:05.263Z,11.10
2019-03-06T00:08:34.657Z,11.10
2019-03-06T00:11:03.638Z,11.10
2019-03-06T00:13:33.167Z,11.20
2019-03-06T00:16:02.203Z,11.10
2019-03-06T00:18:31.533Z,11.10
2019-03-06T00:21:00.581Z,10.80
2019-03-06T00:23:29.983Z,11.10
2019-03-06T00:25:59.842Z,11.10
2019-03-06T00:28:29.572Z,11.10
2019-03-06T00:30:58.620Z,11.00
2019-03-06T00:33:27.934Z,11.00
2019-03-06T00:35:57.196Z,11.00
2019-03-06T00:38:26.663Z,11.00
2019-03-06T00:41:04.262Z,11.00
2019-03-06T00:43:33.677Z,10.90
2019-03-06T00:46:03.116Z,10.80
2019-03-06T00:48:33.120Z,10.80
2019-03-06T00:51:02.326Z,10.90
2019-03-06T00:53:31.373Z,10.90
2019-03-06T00:56:01.304Z,10.90
2019-03-06T00:58:30.458Z,10.80
2019-03-06T01:00:59.774Z,10.80
2019-03-06T01:03:28.817Z,10.70
2019-03-06T01:05:57.917Z,10.70
2019-03-06T01:08:27.138Z,10.60
2019-03-06T01:10:56.186Z,10.70
2019-03-06T01:13:25.276Z,10.70
2019-03-06T01:15:54.610Z,10.70
2019-03-06T01:18:29.912Z,10.70
2019-03-06T01:20:58.977Z,10.70
2019-03-06T01:23:28.352Z,10.70
2019-03-06T01:25:57.427Z,10.80
2019-03-06T01:28:26.474Z,10.70
2019-03-06T01:30:56.277Z,10.70
2019-03-06T01:33:50.578Z,10.70
2019-03-06T01:36:39.739Z,10.70
2019-03-06T01:39:31.374Z,10.70
2019-03-06T01:42:13.363Z,10.60
2019-03-06T01:44:46.071Z,10.60
2019-03-06T01:47:15.551Z,10.50
2019-03-06T01:49:44.875Z,10.60
2019-03-06T01:52:14.189Z,10.50
2019-03-06T01:54:43.589Z,10.50
2019-03-06T01:57:12.664Z,10.50
2019-03-06T01:59:41.747Z,10.50
2019-03-06T02:02:11.268Z,10.60
2019-03-06T02:04:40.159Z,10.60
2019-03-06T02:07:10.016Z,10.60
2019-03-06T02:09:39.804Z,10.60
2019-03-06T02:12:09.184Z,10.60
2019-03-06T02:14:38.130Z,10.60
2019-03-06T02:17:07.144Z,10.60
2019-03-06T02:19:36.792Z,10.60
2019-03-06T02:22:05.924Z,10.60
2019-03-06T02:24:35.297Z,10.50
2019-03-06T02:27:04.723Z,10.50
2019-03-06T02:29:33.686Z,10.50
2019-03-06T02:32:03.075Z,10.50
2019-03-06T02:34:32.535Z,10.50
2019-03-06T02:37:01.579Z,10.50
2019-03-06T02:39:30.967Z,10.50
2019-03-06T02:42:00.311Z,10.50
2019-03-06T02:44:29.410Z,10.50
2019-03-06T02:46:58.750Z,10.50
2019-03-06T02:49:28.316Z,10.50
2019-03-06T02:51:57.243Z,10.50
2019-03-06T02:54:26.861Z,10.50
2019-03-06T02:56:55.936Z,10.50
2019-03-06T02:59:43.942Z,10.50
2019-03-06T03:02:19.210Z,10.40
2019-03-06T03:05:07.275Z,10.40
2019-03-06T03:07:36.362Z,10.30
2019-03-06T03:10:05.998Z,10.30
2019-03-06T03:12:35.083Z,10.30
2019-03-06T03:15:04.510Z,10.40
2019-03-06T03:17:34.667Z,10.40
2019-03-06T03:20:04.216Z,10.40
2019-03-06T03:22:33.256Z,10.50
2019-03-06T03:25:02.345Z,10.50
2019-03-06T03:27:31.311Z,10.50
2019-03-06T03:30:00.778Z,10.50
2019-03-06T03:32:29.937Z,10.60
2019-03-06T03:34:58.816Z,10.70
2019-03-06T03:37:27.924Z,10.70
2019-03-06T03:39:56.971Z,10.80
2019-03-06T03:42:26.372Z,10.90
2019-03-06T03:44:55.460Z,10.90
2019-03-06T03:47:24.445Z,10.90
2019-03-06T03:49:53.650Z,10.80
2019-03-06T03:52:22.994Z,10.80
2019-03-06T03:54:52.261Z,10.80
2019-03-06T03:57:21.635Z,10.80
2019-03-06T03:59:51.483Z,10.70
2019-03-06T04:02:20.772Z,10.70
2019-03-06T04:04:50.070Z,9.70
2019-03-06T04:07:19.140Z,10.70
2019-03-06T04:09:48.278Z,10.60
2019-03-06T04:12:17.282Z,10.60
2019-03-06T04:14:46.362Z,10.60
2019-03-06T04:17:15.772Z,10.60
2019-03-06T04:19:44.860Z,10.60
2019-03-06T04:22:14.204Z,10.50
2019-03-06T04:24:43.639Z,10.50
2019-03-06T04:27:12.854Z,10.50
2019-03-06T04:29:41.830Z,10.50
2019-03-06T04:32:10.722Z,10.50
2019-03-06T04:34:39.857Z,10.50
2019-03-06T04:37:08.897Z,10.50
2019-03-06T04:39:37.888Z,10.50
2019-03-06T04:42:07.255Z,10.50
2019-03-06T04:44:36.351Z,10.50
2019-03-06T04:47:06.013Z,10.50
2019-03-06T04:49:35.941Z,10.50
2019-03-06T04:52:04.949Z,10.60
2019-03-06T04:54:33.958Z,10.60
2019-03-06T04:57:03.223Z,10.60
2019-03-06T04:59:32.269Z,10.60
2019-03-06T05:02:01.939Z,10.60
2019-03-06T05:04:30.938Z,10.60
2019-03-06T05:07:00.517Z,10.60
2019-03-06T05:09:29.620Z,10.50
2019-03-06T05:11:59.038Z,10.50
2019-03-06T05:14:28.402Z,10.40
2019-03-06T05:17:28.817Z,10.40
2019-03-06T05:19:58.150Z,10.30
2019-03-06T05:22:27.314Z,10.30
2019-03-06T05:24:56.579Z,10.20
2019-03-06T05:27:25.973Z,10.10
2019-03-06T05:29:55.254Z,10.10
2019-03-06T05:32:41.866Z,10.10
2019-03-06T05:35:23.870Z,10.10
2019-03-06T05:38:15.321Z,10.10
2019-03-06T05:40:44.338Z,10.00
2019-03-06T05:43:13.702Z,10.00
2019-03-06T05:45:43.105Z,10.00
2019-03-06T05:48:12.478Z,10.00
2019-03-06T05:50:41.879Z,10.00
2019-03-06T05:53:10.890Z,10.00
2019-03-06T05:55:39.922Z,10.00
2019-03-06T05:58:09.250Z,10.00
2019-03-06T06:00:38.265Z,10.00
2019-03-06T06:03:07.239Z,10.00
2019-03-06T06:05:36.539Z,10.00
2019-03-06T06:08:05.561Z,10.10
2019-03-06T06:10:34.928Z,10.10
2019-03-06T06:13:04.001Z,10.10
2019-03-06T06:15:33.386Z,10.20
2019-03-06T06:18:02.624Z,10.30
2019-03-06T06:20:31.674Z,10.30
2019-03-06T06:23:12.024Z,10.40
2019-03-06T06:25:41.051Z,10.40
2019-03-06T06:28:10.115Z,10.40
2019-03-06T06:30:39.511Z,10.50
2019-03-06T06:33:08.844Z,10.50
2019-03-06T06:35:37.822Z,10.50
2019-03-06T06:38:07.209Z,10.60
2019-03-06T06:40:36.245Z,10.50
2019-03-06T06:43:05.211Z,10.70
2019-03-06T06:45:34.524Z,10.90
2019-03-06T06:48:28.698Z,11.00
2019-03-06T06:51:33.876Z,11.10
2019-03-06T06:54:14.285Z,11.20
2019-03-06T06:57:20.724Z,11.30
2019-03-06T07:00:49.054Z,11.40
2019-03-06T07:04:23.450Z,11.30
2019-03-06T07:07:12.132Z,11.40
2019-03-06T07:09:52.939Z,11.60
2019-03-06T07:12:31.594Z,11.60
2019-03-06T07:15:31.734Z,11.60
2019-03-06T07:18:19.529Z,11.70
2019-03-06T07:21:09.433Z,11.70
2019-03-06T07:24:06.708Z,11.70
2019-03-06T07:26:53.712Z,11.80
2019-03-06T07:29:38.700Z,11.90
2019-03-06T07:32:21.080Z,11.90
2019-03-06T07:35:57.480Z,11.90
2019-03-06T07:38:27.095Z,11.80
2019-03-06T07:41:15.275Z,11.60
2019-03-06T07:43:52.844Z,11.50
2019-03-06T07:46:40.931Z,11.90
2019-03-06T07:49:31.796Z,11.70
2019-03-06T07:52:12.103Z,11.70
2019-03-06T07:54:50.832Z,11.80
2019-03-06T07:57:28.114Z,12.00
2019-03-06T07:59:57.921Z,12.10
2019-03-06T08:02:33.526Z,12.30
2019-03-06T08:05:02.878Z,12.50
2019-03-06T08:07:31.884Z,12.50
2019-03-06T08:10:02.457Z,12.50
2019-03-06T08:12:56.498Z,12.50
2019-03-06T08:16:00.208Z,12.50
2019-03-06T08:18:50.342Z,12.40
2019-03-06T08:21:41.782Z,12.40
2019-03-06T08:24:30.670Z,12.40
2019-03-06T08:27:00.356Z,12.50
2019-03-06T08:29:29.689Z,12.50
2019-03-06T08:32:02.431Z,12.60
2019-03-06T08:34:32.074Z,12.60
2019-03-06T08:37:01.413Z,12.70
2019-03-06T08:39:30.466Z,12.80
2019-03-06T08:41:59.486Z,13.00
2019-03-06T08:44:28.495Z,13.00
2019-03-06T08:47:32.384Z,13.20
2019-03-06T08:50:09.271Z,13.20
2019-03-06T08:55:24.174Z,13.40
2019-03-06T08:58:27.688Z,13.60
2019-03-06T09:01:25.947Z,13.70
2019-03-06T09:04:29.175Z,13.80
2019-03-06T09:07:20.183Z,14.00
2019-03-06T09:09:57.791Z,14.20
2019-03-06T09:12:42.110Z,14.30
2019-03-06T09:15:43.243Z,14.50
2019-03-06T09:18:40.432Z,14.60
2019-03-06T09:21:28.667Z,14.70
2019-03-06T09:24:26.459Z,14.70
2019-03-06T09:27:07.758Z,14.70
2019-03-06T09:29:54.841Z,14.70
2019-03-06T09:32:41.566Z,14.70
2019-03-06T09:35:36.044Z,14.70
2019-03-06T09:38:15.714Z,14.70
2019-03-06T09:41:02.955Z,14.70
2019-03-06T09:44:09.532Z,14.70
2019-03-06T09:47:10.380Z,14.80
2019-03-06T09:50:07.888Z,14.90
2019-03-06T09:52:47.436Z,14.90
2019-03-06T09:55:34.487Z,15.00
2019-03-06T09:58:22.909Z,15.00
2019-03-06T10:01:05.970Z,14.90
2019-03-06T10:03:54.306Z,15.00
2019-03-06T10:06:45.804Z,15.00
2019-03-06T10:09:46.248Z,15.10
2019-03-06T10:12:28.546Z,15.30
2019-03-06T10:15:11.207Z,15.40
2019-03-06T10:17:44.976Z,15.40
2019-03-06T10:20:24.903Z,15.50
2019-03-06T10:22:49.001Z,15.50
2019-03-06T10:25:18.480Z,15.40
2019-03-06T10:27:48.094Z,15.40
2019-03-06T10:30:18.777Z,15.50
2019-03-06T10:32:48.247Z,15.60
2019-03-06T10:35:18.213Z,15.60
2019-03-06T10:37:47.545Z,15.80
2019-03-06T10:40:17.764Z,15.90
2019-03-06T10:42:46.937Z,16.00
2019-03-06T10:45:16.576Z,16.10
2019-03-06T10:47:46.220Z,16.30
2019-03-06T10:50:26.011Z,16.30
2019-03-06T10:52:48.234Z,16.30
2019-03-06T10:55:17.714Z,16.30
2019-03-06T10:57:46.890Z,16.40
2019-03-06T11:00:20.582Z,16.40
2019-03-06T11:02:50.810Z,16.50
2019-03-06T11:05:25.428Z,16.40
2019-03-06T11:07:55.672Z,16.40
2019-03-06T11:10:26.063Z,16.40
2019-03-06T11:12:57.055Z,16.20
2019-03-06T11:15:26.696Z,16.00
2019-03-06T11:17:55.879Z,15.90
2019-03-06T11:20:28.219Z,15.70
2019-03-06T11:22:59.111Z,15.60
2019-03-06T11:25:29.196Z,15.60
2019-03-06T11:27:58.404Z,15.70
2019-03-06T11:30:32.925Z,15.70
2019-03-06T11:33:02.509Z,15.80
2019-03-06T11:35:34.112Z,16.00
2019-03-06T11:38:03.773Z,16.10
2019-03-06T11:40:34.896Z,16.20
2019-03-06T11:43:04.263Z,16.30
2019-03-06T11:45:33.412Z,16.30
2019-03-06T11:48:02.802Z,16.30
2019-03-06T11:50:40.394Z,16.30
2019-03-06T11:53:03.290Z,16.30
2019-03-06T11:55:32.438Z,16.30
2019-03-06T11:58:01.507Z,16.20
2019-03-06T12:00:37.362Z,16.20
2019-03-06T12:03:06.948Z,16.20
2019-03-06T12:05:36.849Z,16.20
2019-03-06T12:08:09.272Z,16.40
2019-03-06T12:10:38.412Z,16.70
2019-03-06T12:13:10.285Z,16.70
2019-03-06T12:15:40.575Z,16.70
2019-03-06T12:18:09.784Z,16.70
2019-03-06T12:20:39.064Z,16.80
2019-03-06T12:23:08.526Z,16.80
2019-03-06T12:25:38.283Z,16.90
2019-03-06T12:28:08.650Z,16.90
2019-03-06T12:30:39.467Z,16.90
2019-03-06T12:33:09.344Z,17.00
2019-03-06T12:35:39.412Z,17.00
2019-03-06T12:38:08.492Z,17.00
2019-03-06T12:40:37.861Z,16.90
2019-03-06T12:43:06.993Z,16.90
2019-03-06T12:45:37.689Z,16.80
2019-03-06T12:48:09.459Z,16.70
2019-03-06T12:50:38.585Z,16.50
2019-03-06T12:53:07.747Z,16.50
2019-03-06T12:55:37.009Z,16.40
2019-03-06T12:58:06.265Z,16.30
2019-03-06T13:00:36.020Z,16.20
2019-03-06T13:03:05.390Z,16.10
2019-03-06T13:05:34.497Z,16.10
2019-03-06T13:08:04.101Z,16.00
2019-03-06T13:10:33.237Z,15.90
2019-03-06T13:13:02.346Z,15.80
2019-03-06T13:15:32.140Z,15.80
2019-03-06T13:18:01.112Z,15.80
2019-03-06T13:20:30.275Z,15.80
2019-03-06T13:22:59.875Z,15.80
2019-03-06T13:25:29.268Z,15.80
2019-03-06T13:27:58.699Z,15.90
2019-03-06T13:30:28.307Z,15.90
2019-03-06T13:33:13.750Z,16.00
2019-03-06T13:35:42.967Z,16.00
2019-03-06T13:38:12.448Z,16.00
2019-03-06T13:40:42.299Z,15.90
2019-03-06T13:43:11.779Z,15.90
2019-03-06T13:45:41.480Z,15.90
2019-03-06T13:48:10.581Z,15.80
2019-03-06T13:50:39.929Z,15.80
2019-03-06T13:53:08.985Z,15.80
2019-03-06T13:55:38.527Z,15.80
2019-03-06T13:58:07.694Z,15.80
2019-03-06T14:00:37.956Z,15.70
2019-03-06T14:03:07.034Z,15.70
2019-03-06T14:05:36.457Z,15.60
2019-03-06T14:08:06.703Z,15.60
2019-03-06T14:10:36.156Z,15.60
2019-03-06T14:13:05.383Z,15.60
2019-03-06T14:15:34.469Z,15.70
2019-03-06T14:18:04.098Z,15.60
2019-03-06T14:20:34.486Z,15.70
2019-03-06T14:23:03.843Z,15.60
2019-03-06T14:25:33.569Z,15.70
2019-03-06T14:28:03.751Z,15.70
2019-03-06T14:30:32.916Z,15.70
2019-03-06T14:33:02.041Z,15.70
2019-03-06T14:35:31.587Z,15.70
2019-03-06T14:38:01.001Z,15.70
2019-03-06T14:40:31.085Z,15.70
2019-03-06T14:43:01.307Z,15.70
2019-03-06T14:45:30.408Z,15.70
2019-03-06T14:47:59.605Z,15.70
2019-03-06T14:50:28.911Z,15.70
2019-03-06T14:52:58.415Z,15.70
2019-03-06T14:55:27.556Z,15.70
2019-03-06T14:57:57.012Z,15.70
2019-03-06T15:00:26.487Z,15.70
2019-03-06T15:02:55.552Z,15.70
2019-03-06T15:05:25.400Z,15.70
2019-03-06T15:07:54.793Z,15.70
2019-03-06T15:10:24.189Z,15.70
2019-03-06T15:12:53.833Z,15.70
2019-03-06T15:15:22.987Z,15.80
2019-03-06T15:17:52.222Z,15.80
2019-03-06T15:20:21.436Z,15.80
2019-03-06T15:22:50.755Z,15.80
2019-03-06T15:25:21.028Z,15.80
2019-03-06T15:27:50.223Z,15.80
2019-03-06T15:30:20.347Z,15.90
2019-03-06T15:32:50.130Z,15.90
2019-03-06T15:35:19.606Z,15.90
2019-03-06T15:37:48.843Z,15.90
2019-03-06T15:40:22.383Z,16.00
2019-03-06T15:42:51.547Z,16.00
2019-03-06T15:45:23.513Z,16.00
2019-03-06T15:47:52.703Z,16.10
2019-03-06T15:50:21.824Z,16.10
2019-03-06T15:52:50.975Z,16.10
2019-03-06T15:55:24.291Z,16.10
2019-03-06T15:57:53.403Z,16.10
2019-03-06T16:00:32.250Z,16.10
2019-03-06T16:03:01.560Z,16.10
2019-03-06T16:05:30.836Z,16.10
2019-03-06T16:08:00.193Z,16.10
2019-03-06T16:10:29.745Z,16.10
2019-03-06T16:12:59.129Z,16.20
2019-03-06T16:15:28.946Z,16.10
2019-03-06T16:17:59.419Z,16.20
2019-03-06T16:20:28.857Z,16.20
2019-03-06T16:22:58.287Z,16.20
2019-03-06T16:25:36.306Z,16.20
2019-03-06T16:27:58.987Z,16.20
2019-03-06T16:30:29.802Z,16.20
2019-03-06T16:32:59.375Z,16.20
2019-03-06T16:35:29.110Z,16.20
2019-03-06T16:37:58.437Z,16.20
2019-03-06T16:40:27.981Z,16.20
2019-03-06T16:42:57.731Z,16.20
2019-03-06T16:45:27.244Z,16.20
2019-03-06T16:47:56.692Z,16.20
2019-03-06T16:50:26.062Z,16.20
2019-03-06T16:52:55.589Z,16.20
2019-03-06T16:55:25.362Z,16.20
2019-03-06T16:57:54.827Z,16.10
2019-03-06T17:00:29.453Z,16.10
2019-03-06T17:02:59.516Z,16.10
2019-03-06T17:05:28.844Z,16.10
2019-03-06T17:07:58.616Z,16.10
2019-03-06T17:10:28.248Z,16.10
2019-03-06T17:12:57.485Z,16.10
2019-03-06T17:15:27.364Z,16.00
2019-03-06T17:17:57.097Z,16.00
2019-03-06T17:20:27.419Z,16.00
2019-03-06T17:22:57.410Z,16.00
2019-03-06T17:25:28.392Z,16.00
2019-03-06T17:27:57.887Z,15.90
2019-03-06T17:30:27.402Z,15.90
2019-03-06T17:33:04.540Z,15.90
2019-03-06T17:35:34.471Z,15.90
2019-03-06T17:38:04.425Z,15.90
2019-03-06T17:40:33.900Z,15.80
2019-03-06T17:43:03.009Z,15.80
2019-03-06T17:45:32.033Z,15.80
2019-03-06T17:48:01.454Z,15.80
2019-03-06T17:50:30.878Z,15.80
2019-03-06T17:53:00.287Z,15.80
2019-03-06T17:55:29.763Z,15.80
2019-03-06T17:57:59.145Z,15.80
2019-03-06T18:00:43.622Z,15.80
2019-03-06T18:03:15.309Z,15.70
2019-03-06T18:05:44.742Z,15.70
2019-03-06T18:08:13.821Z,15.70
2019-03-06T18:10:43.669Z,15.70
2019-03-06T18:13:12.950Z,15.60
2019-03-06T18:15:44.325Z,15.60
2019-03-06T18:18:13.245Z,15.60
2019-03-06T18:20:42.407Z,15.60
2019-03-06T18:23:11.849Z,15.50
2019-03-06T18:25:41.023Z,15.50
2019-03-06T18:28:10.196Z,15.50
2019-03-06T18:30:39.347Z,15.50
2019-03-06T18:33:08.462Z,15.50
2019-03-06T18:35:37.994Z,15.40
2019-03-06T18:38:07.117Z,15.40
2019-03-06T18:40:36.238Z,15.40
2019-03-06T18:43:06.318Z,15.40
2019-03-06T18:45:35.563Z,15.30
2019-03-06T18:48:05.006Z,15.30
2019-03-06T18:50:34.393Z,14.40
2019-03-06T18:53:03.515Z,15.30
2019-03-06T18:55:32.916Z,15.30
2019-03-06T18:58:02.427Z,15.30
2019-03-06T19:00:33.511Z,15.30
2019-03-06T19:03:02.569Z,15.30
2019-03-06T19:05:31.983Z,15.30
2019-03-06T19:08:01.612Z,15.20
2019-03-06T19:10:30.675Z,15.20
2019-03-06T19:12:59.800Z,15.20
2019-03-06T19:15:29.491Z,15.20
2019-03-06T19:17:58.790Z,15.20
2019-03-06T19:20:28.066Z,15.30
2019-03-06T19:22:57.105Z,15.30
2019-03-06T19:25:26.692Z,15.30
2019-03-06T19:27:55.826Z,15.20
2019-03-06T19:30:25.038Z,15.20
2019-03-06T19:32:54.260Z,15.20
2019-03-06T19:35:23.291Z,15.20
2019-03-06T19:37:52.408Z,15.20
2019-03-06T19:40:22.212Z,15.20
2019-03-06T19:42:51.526Z,15.20
2019-03-06T19:45:23.092Z,15.20
2019-03-06T19:47:52.710Z,15.10
2019-03-06T19:50:22.927Z,15.10
2019-03-06T19:52:53.188Z,15.10
2019-03-06T19:55:22.881Z,15.20
2019-03-06T19:58:02.751Z,15.30
2019-03-06T20:00:33.267Z,15.40
2019-03-06T20:03:02.689Z,15.40
2019-03-06T20:05:34.674Z,15.50
2019-03-06T20:08:07.384Z,15.50
2019-03-06T20:10:37.635Z,15.50
2019-03-06T20:13:07.299Z,15.40
2019-03-06T20:15:37.203Z,15.40
2019-03-06T20:18:06.305Z,15.40
2019-03-06T20:20:35.428Z,15.50
2019-03-06T20:23:04.670Z,15.50
2019-03-06T20:25:34.348Z,15.40
2019-03-06T20:28:03.469Z,15.40
2019-03-06T20:30:32.909Z,15.40
2019-03-06T20:33:02.021Z,15.40
2019-03-06T20:35:31.328Z,15.40
2019-03-06T20:38:00.878Z,15.40
2019-03-06T20:40:30.339Z,15.40
2019-03-06T20:43:00.084Z,15.30
2019-03-06T20:45:29.423Z,15.30
2019-03-06T20:47:58.502Z,15.20
2019-03-06T20:50:27.992Z,15.10
2019-03-06T20:52:58.288Z,15.10
2019-03-06T20:55:27.381Z,15.10
2019-03-06T20:57:56.926Z,15.10
2019-03-06T21:00:26.678Z,15.10
2019-03-06T21:02:55.856Z,15.00
2019-03-06T21:05:25.358Z,15.00
2019-03-06T21:07:54.937Z,15.00
2019-03-06T21:10:24.074Z,15.00
2019-03-06T21:12:53.557Z,15.00
2019-03-06T21:15:22.731Z,15.00
2019-03-06T21:17:52.556Z,15.10
2019-03-06T21:20:21.674Z,15.10
2019-03-06T21:22:50.769Z,15.10
2019-03-06T21:25:19.950Z,15.10
2019-03-06T21:27:49.651Z,15.10
2019-03-06T21:30:28.336Z,15.10
2019-03-06T21:32:57.327Z,15.10
2019-03-06T21:35:26.734Z,15.10
2019-03-06T21:37:56.407Z,15.10
2019-03-06T21:40:25.578Z,15.10
2019-03-06T21:42:54.691Z,15.10
2019-03-06T21:45:24.166Z,15.10
2019-03-06T21:47:53.199Z,15.10
2019-03-06T21:50:22.297Z,15.10
2019-03-06T21:52:51.789Z,15.10
2019-03-06T21:55:20.908Z,15.10
2019-03-06T21:57:50.964Z,15.10
2019-03-06T22:00:22.751Z,15.00
2019-03-06T22:02:51.939Z,15.00
2019-03-06T22:05:21.045Z,15.00
2019-03-06T22:07:51.258Z,14.90
2019-03-06T22:10:20.888Z,14.90
2019-03-06T22:12:51.383Z,14.90
2019-03-06T22:15:20.451Z,14.90
2019-03-06T22:17:49.598Z,14.90
2019-03-06T22:20:18.880Z,14.90
2019-03-06T22:22:48.007Z,14.90
2019-03-06T22:25:17.796Z,14.90
2019-03-06T22:27:47.038Z,14.90
2019-03-06T22:30:17.821Z,14.90
2019-03-06T22:32:46.906Z,15.00
2019-03-06T22:35:15.980Z,14.90
2019-03-06T22:37:45.199Z,14.90
2019-03-06T22:40:15.389Z,14.90
2019-03-06T22:42:44.578Z,14.90
2019-03-06T22:45:14.575Z,15.00
2019-03-06T22:47:43.594Z,14.90
2019-03-06T22:50:13.574Z,15.00
2019-03-06T22:52:42.655Z,15.00
2019-03-06T22:55:13.908Z,15.00
2019-03-06T22:57:43.276Z,15.00
2019-03-06T23:00:41.983Z,15.00
2019-03-06T23:03:11.661Z,15.00
2019-03-06T23:05:40.880Z,15.00
2019-03-06T23:08:10.075Z,15.00
2019-03-06T23:10:39.169Z,15.00
2019-03-06T23:13:08.481Z,15.00
2019-03-06T23:15:38.584Z,15.00
2019-03-06T23:18:07.668Z,15.00
2019-03-06T23:20:36.733Z,15.00
2019-03-06T23:23:05.983Z,15.10
2019-03-06T23:25:35.458Z,15.10
2019-03-06T23:28:05.400Z,15.00
2019-03-06T23:30:34.918Z,15.10
2019-03-06T23:33:04.005Z,15.00
2019-03-06T23:35:33.181Z,15.00
2019-03-06T23:38:02.675Z,15.00
2019-03-06T23:40:31.622Z,15.00
2019-03-06T23:43:00.759Z,14.90
2019-03-06T23:45:30.114Z,14.90
2019-03-06T23:47:59.253Z,14.90
2019-03-06T23:50:28.399Z,14.90
2019-03-06T23:53:02.378Z,14.80
2019-03-06T23:55:31.711Z,14.70
2019-03-06T23:58:01.112Z,14.70
